Aktualne dane pomiarowe

Uwaga, wersja testowa! Automatyczne pobieranie danych za pomocą narzędzi lub skryptów to umożliwiających jest zabronione.

Dane meteo z obszaru Polski uzyskane na podstawie depesz SYNOP pobieranych co godzinę z NWS. Najedź myszką na symbol przedstawiony w tabeli, aby uzyskać informacje co do jego znaczenia. Prosimy pamiętać, że to testowa wersja strony, która jeszcze nie jest ukończona. Stworzono również jest krótki FAQ dotyczący korzystania z tej podstrony Anomalie temperatury w chwili obecnej odniesione są do okresu referencyjnego 1951-2016. Okres ten będzie później zmieniony na 1981-2010. Kliknij ikonę aby pobrać plik CSV. Kliknij ikonę aby wygenerować mapę synoptyczną dla danego terminu.

Wybierz Datę:    

        

Jelenia Góra (12500)

Dane terminowe dla wybranej stacji. Kliknij datę, aby otrzymać dane z tego terminu dla wszystkich stacji.

TemperaturaZachmurzenieWiatrCiśnienieOpadyPogoda
 Data t td wb tx tn tg rh  Nt Nl Cl Cm Ch ws wd g1 g2 wx mslp ppp ch 24h 12h t ww ww w1 w2  
2019-06-30 23:00:00 15.6 12.7 13.6--- 8345.0wx-1wx--11014.2 973.8 0.3---------
2019-06-30 22:00:00 18.4 12.6 14.7--- 6950.0wx-1wx--11013.8 973.8 0.7---------
2019-06-30 21:00:00 19.6 12.8 15.3--- 6550.0wx-1wx--11013.7 973.8 0.6---------
2019-06-30 20:00:00 22.5 12.4 16.3--- 5350.0wx-wx1wx---1012.9 973.5 0.4---------
2019-06-30 19:00:00 25.6 12.1 17.4--- 4350.0wx-wx1wx--11012.1 973.1 -0.2---------
2019-06-30 18:00:00 31.9 10.0 18.8 36.0 18.9- 2640.0wx-wx2wx--21011.4 973.2 -0.5- 0.012------
2019-06-30 17:00:00 34.3 8.8 19.1--- 2140.0wx-wx4wx--41011.0 973.1 -1.0---------
2019-06-30 16:00:00 34.6 9.1 19.4--- 2130.0wx-wx4wx--41011.2 973.3 -1.0---------
2019-06-30 15:00:00 34.6 8.4 19.1--- 2040.0wx-5wx--51011.6 973.7 -1.0---------
2019-06-30 14:00:00 34.8 7.0 18.5--- 1840.0wx-6wx--61012.0 974.1 -1.2---------
2019-06-30 13:00:00 35.3 1.6 16.6--- 1235.0wx-5wx--51012.1 974.3 -1.7---------
2019-06-30 12:00:00 34.9 4.4 17.5--- 1535.0wx-3wx--31012.6 974.7 -1.8- 0.06------
2019-06-30 11:00:00 34.0 6.3 18.0--- 1840.0wx-3wx--31013.3 975.3 -1.6---------
2019-06-30 10:00:00 31.8 8.1 18.0--- 2335.0wx-1wx--11014.3 976.0 -1.2---------
2019-06-30 09:00:00 30.5 9.4 18.1--- 2735.0wx-3wx--31015.0 976.5 -1.1---------
2019-06-30 08:00:00 28.3 11.4 18.1--- 3535.0wx-1wx--11015.7 976.9 -1.0---------
2019-06-30 07:00:00 24.5 14.3 18.0--- 5335.0wx-1wx--11016.5 977.2 -0.9---------
2019-06-30 06:00:00 18.9 13.7 15.5 27.0 10.1 7 7235.0wx-0---01017.7 977.6 -0.7- 0.012----- 14.9
2019-06-30 05:00:00 14.1 12.3 12.8--- 8930.0wx-1wx--11018.7 977.9 -0.5---------
2019-06-30 04:00:00 11.1 10.6 10.7--- 9722.0wx-1wx---1019.4 978.1 -0.6---------
2019-06-30 03:00:00 10.3 9.8 9.9--- 9710.0wx-1wx--11019.7 978.3 -0.7---wx---
2019-06-30 02:00:00 10.8 10.3 10.4--- 975.0wx-1wx--11019.7 978.4 -1.2---------
2019-06-30 01:00:00 11.2 10.4 10.6--- 9512.0wx-2wx--21020.0 978.7 -1.1---wx---
2019-06-30 00:00:00 12.0 9.9 10.6--- 8725.0wx-1wx---1020.2 979.0 -0.6---wx---
2019-06-29 23:00:00 12.9 11.8 12.1--- 9320.0wx-1wx---1020.7 979.6 0.2---wx---
2019-06-29 22:00:00 14.8 11.8 12.8--- 8235.0wx-1wx---1020.6 979.8 0.5---------
2019-06-29 21:00:00 15.9 12.5 13.6--- 8035.0wx-1wx---1020.2 979.6 0.3---------
2019-06-29 20:00:00 18.0 13.3 14.9--- 7422.0wx-wx0---01019.7 979.4 -0.1---------
2019-06-29 19:00:00 21.7 12.8 16.1--- 5750.0wx-wx1wx--11019.1 979.3 -0.5---------
2019-06-29 18:00:00 26.9 10.6 17.2 28.2 16.1- 3650.0wx-wx1wx--11018.4 979.3 -0.8- 0.012------
2019-06-29 17:00:00 27.4 9.7 17.0--- 3335.0wx-wx2wx---1018.5 979.5 -1.0---------
2019-06-29 16:00:00 27.8 9.6 17.1--- 3235.0wx-wx2wx---1018.8 979.8 -1.0---------
2019-06-29 15:00:00 27.5 10.2 17.3--- 3440.0wx-wx2wx--21019.1 980.1 -1.2---------
2019-06-29 14:00:00 27.3 10.1 17.2--- 3435.0wx-wx3wx---1019.6 980.5 -1.2---------
2019-06-29 13:00:00 26.7 10.0 16.9--- 3550.0wx-wx3wx---1020.0 980.8 -1.3---------
2019-06-29 12:00:00 26.1 10.3 16.8--- 3735.0wxwxwxwx2wx--21020.6 981.3 -0.7- 0.06------
2019-06-29 11:00:00 25.0 10.8 16.5--- 4140.0wxwxwxwx1wx--11021.1 981.7 -0.8---------
2019-06-29 10:00:00 24.2 9.7 15.7--- 4040.0wxwxwxwx2wx--21021.7 982.1 -0.6---------
2019-06-29 09:00:00 23.2 9.6 15.3--- 4245.0wxwxwxwx2wx--21021.7 982.0 -0.9---------
2019-06-29 08:00:00 22.0 10.2 15.0--- 4735.0wxwxwxwx1wx--11022.4 982.5 -0.4---------
2019-06-29 07:00:00 19.8 11.0 14.4--- 5735.0wxwxwxwx1wx--11022.9 982.7 -0.5---------
2019-06-29 06:00:00 16.1 11.0 12.8 21.4 7.8 5 7235.0wxwxwxwx0---01023.6 982.9 -0.4- 0.012----- 10.8
2019-06-29 05:00:00 11.8 9.9 10.5--- 8830.0wxwxwxwx1wx--11024.3 982.9 -0.6---------
2019-06-29 04:00:00 8.4 7.5 7.7--- 9420.0wx-wx0---01025.1 983.2 -0.2---------
2019-06-29 03:00:00 7.9 7.3 7.4--- 9620.0wx-wx1wx--11025.3 983.3 -0.1---------
2019-06-29 02:00:00 8.2 7.1 7.4--- 9320.0wx-0---01025.4 983.5 0.4---------
2019-06-29 01:00:00 8.4 7.6 7.8--- 9525.0wx-2wx--21025.3 983.4 0.3---------
2019-06-29 00:00:00 9.8 8.4 8.8--- 9135.0wx-1wx--11025.1 983.4 0.3- 0.06------
2.7 ms

 

Print Friendly, PDF & Email